createdAt,value
2019-06-20T00:00:44.049Z,0.00
2019-06-20T00:01:44.095Z,0.00
2019-06-20T00:02:44.160Z,0.00
2019-06-20T00:03:44.235Z,0.00
2019-06-20T00:04:44.297Z,0.00
2019-06-20T00:05:44.357Z,0.00
2019-06-20T00:06:44.423Z,0.00
2019-06-20T00:07:44.488Z,0.00
2019-06-20T00:08:44.559Z,0.00
2019-06-20T00:09:44.623Z,0.00
2019-06-20T00:10:44.683Z,0.00
2019-06-20T00:11:44.747Z,0.00
2019-06-20T00:12:59.570Z,0.00
2019-06-20T00:13:44.884Z,0.00
2019-06-20T00:14:44.953Z,0.00
2019-06-20T00:15:45.008Z,0.00
2019-06-20T00:16:45.072Z,0.00
2019-06-20T00:17:45.140Z,0.00
2019-06-20T00:18:45.223Z,0.00
2019-06-20T00:19:45.268Z,0.00
2019-06-20T00:20:45.336Z,0.00
2019-06-20T00:21:45.409Z,0.00
2019-06-20T00:22:45.464Z,0.00
2019-06-20T00:23:45.536Z,0.00
2019-06-20T00:24:45.604Z,0.00
2019-06-20T00:25:45.661Z,0.00
2019-06-20T00:26:45.728Z,0.00
2019-06-20T00:27:45.793Z,0.00
2019-06-20T00:28:45.875Z,0.00
2019-06-20T00:29:45.940Z,0.00
2019-06-20T00:30:46.000Z,0.00
2019-06-20T00:31:46.064Z,0.00
2019-06-20T00:32:46.125Z,0.00
2019-06-20T00:33:46.210Z,0.00
2019-06-20T00:34:46.280Z,0.00
2019-06-20T00:35:46.319Z,0.00
2019-06-20T00:36:46.380Z,0.00
2019-06-20T00:37:46.452Z,0.00
2019-06-20T00:38:46.531Z,0.00
2019-06-20T00:39:46.588Z,0.00
2019-06-20T00:40:46.644Z,0.00
2019-06-20T00:41:46.712Z,0.00
2019-06-20T00:42:46.776Z,0.00
2019-06-20T00:43:46.848Z,0.00
2019-06-20T00:44:46.911Z,0.00
2019-06-20T00:45:46.965Z,0.00
2019-06-20T00:46:47.029Z,0.00
2019-06-20T00:47:47.094Z,0.00
2019-06-20T00:48:47.322Z,0.00
2019-06-20T00:49:47.226Z,0.00
2019-06-20T00:50:47.289Z,0.00
2019-06-20T00:51:47.358Z,0.00
2019-06-20T00:52:47.422Z,0.00
2019-06-20T00:53:47.494Z,0.00
2019-06-20T00:54:47.558Z,0.00
2019-06-20T00:55:47.618Z,0.00
2019-06-20T00:56:47.684Z,0.00
2019-06-20T00:57:47.746Z,0.00
2019-06-20T00:58:47.818Z,0.00
2019-06-20T00:59:47.886Z,0.00
2019-06-20T01:00:47.943Z,0.00
2019-06-20T01:01:48.008Z,0.00
2019-06-20T01:02:48.075Z,0.00
2019-06-20T01:03:48.172Z,0.00
2019-06-20T01:04:48.204Z,0.00
2019-06-20T01:05:48.271Z,0.00
2019-06-20T01:06:48.338Z,0.00
2019-06-20T01:07:48.398Z,0.00
2019-06-20T01:08:48.470Z,0.00
2019-06-20T01:09:48.537Z,0.00
2019-06-20T01:10:48.595Z,0.00
2019-06-20T01:11:48.659Z,0.00
2019-06-20T01:12:48.723Z,0.00
2019-06-20T01:13:48.798Z,0.00
2019-06-20T01:14:48.864Z,0.00
2019-06-20T01:15:48.925Z,0.00
2019-06-20T01:16:49.023Z,0.00
2019-06-20T01:17:49.047Z,0.00
2019-06-20T01:18:49.283Z,0.00
2019-06-20T01:19:49.179Z,0.00
2019-06-20T01:20:49.248Z,0.00
2019-06-20T01:21:49.308Z,0.00
2019-06-20T01:22:49.391Z,0.00
2019-06-20T01:23:49.447Z,0.00
2019-06-20T01:24:49.512Z,0.00
2019-06-20T01:25:49.574Z,0.00
2019-06-20T01:26:49.636Z,0.00
2019-06-20T01:27:49.700Z,0.00
2019-06-20T01:28:49.772Z,0.00
2019-06-20T01:29:49.835Z,0.00
2019-06-20T01:30:49.892Z,0.00
2019-06-20T01:31:49.965Z,0.00
2019-06-20T01:32:50.032Z,0.00
2019-06-20T01:33:50.248Z,0.00
2019-06-20T01:34:50.152Z,0.00
2019-06-20T01:35:50.218Z,0.00
2019-06-20T01:36:50.286Z,0.00
2019-06-20T01:37:50.348Z,0.00
2019-06-20T01:38:50.427Z,0.00
2019-06-20T01:39:50.486Z,0.00
2019-06-20T01:40:50.544Z,0.00
2019-06-20T01:41:50.608Z,0.00
2019-06-20T01:42:50.672Z,0.00
2019-06-20T01:43:51.253Z,0.00
2019-06-20T01:44:50.810Z,0.00
2019-06-20T01:45:50.868Z,0.00
2019-06-20T01:46:50.932Z,0.00
2019-06-20T01:47:51.007Z,0.00
2019-06-20T01:48:51.068Z,0.00
2019-06-20T01:49:51.138Z,0.00
2019-06-20T01:50:51.193Z,0.00
2019-06-20T01:51:51.266Z,0.00
2019-06-20T01:52:51.321Z,0.00
2019-06-20T01:53:51.400Z,0.00
2019-06-20T01:54:51.486Z,0.00
2019-06-20T01:55:51.519Z,0.00
2019-06-20T01:56:51.581Z,0.00
2019-06-20T01:57:51.657Z,0.00
2019-06-20T01:58:51.724Z,0.00
2019-06-20T01:59:51.786Z,0.00
2019-06-20T02:00:51.842Z,0.00
2019-06-20T02:01:51.914Z,0.00
2019-06-20T02:02:51.975Z,0.00
2019-06-20T02:03:52.045Z,0.00
2019-06-20T02:04:52.110Z,0.00
2019-06-20T02:05:52.169Z,0.00
2019-06-20T02:06:52.234Z,0.00
2019-06-20T02:07:52.309Z,0.00
2019-06-20T02:08:52.384Z,0.00
2019-06-20T02:09:52.442Z,0.00
2019-06-20T02:10:52.494Z,0.00
2019-06-20T02:11:52.558Z,0.00
2019-06-20T02:12:52.622Z,0.00
2019-06-20T02:14:06.524Z,0.00
2019-06-20T02:14:52.762Z,0.00
2019-06-20T02:15:52.820Z,0.00
2019-06-20T02:16:52.887Z,0.00
2019-06-20T02:17:52.951Z,0.00
2019-06-20T02:18:53.030Z,0.00
2019-06-20T02:19:53.087Z,0.00
2019-06-20T02:20:53.143Z,0.00
2019-06-20T02:21:53.216Z,0.00
2019-06-20T02:22:53.278Z,0.00
2019-06-20T02:23:53.357Z,0.00
2019-06-20T02:24:53.409Z,0.00
2019-06-20T02:25:53.470Z,0.00
2019-06-20T02:26:53.539Z,0.00
2019-06-20T02:27:53.599Z,0.00
2019-06-20T02:28:53.670Z,0.00
2019-06-20T02:29:53.745Z,0.00
2019-06-20T02:30:53.808Z,0.00
2019-06-20T02:31:53.863Z,0.00
2019-06-20T02:32:53.934Z,0.00
2019-06-20T02:33:54.000Z,0.00
2019-06-20T02:34:54.066Z,0.00
2019-06-20T02:35:54.119Z,0.00
2019-06-20T02:36:54.184Z,0.00
2019-06-20T02:37:54.256Z,0.00
2019-06-20T02:38:54.578Z,0.00
2019-06-20T02:39:54.387Z,0.00
2019-06-20T02:40:54.445Z,0.00
2019-06-20T02:41:54.518Z,0.00
2019-06-20T02:42:54.579Z,0.00
2019-06-20T02:43:54.648Z,0.00
2019-06-20T02:44:54.712Z,0.00
2019-06-20T02:45:54.772Z,0.00
2019-06-20T02:46:54.837Z,4.00
2019-06-20T02:47:54.905Z,4.00
2019-06-20T02:48:54.972Z,0.00
2019-06-20T02:49:55.049Z,4.00
2019-06-20T02:50:55.102Z,4.00
2019-06-20T02:51:55.195Z,4.00
2019-06-20T02:52:55.224Z,4.00
2019-06-20T02:53:55.292Z,4.00
2019-06-20T02:54:55.638Z,8.00
2019-06-20T02:55:55.426Z,8.00
2019-06-20T02:56:55.485Z,8.00
2019-06-20T02:57:55.553Z,8.00
2019-06-20T02:58:55.616Z,12.00
2019-06-20T02:59:55.688Z,8.00
2019-06-20T03:00:55.755Z,12.00
2019-06-20T03:01:55.808Z,12.00
2019-06-20T03:02:55.877Z,16.00
2019-06-20T03:03:55.942Z,16.00
2019-06-20T03:04:56.014Z,16.00
2019-06-20T03:05:56.077Z,16.00
2019-06-20T03:06:56.137Z,20.00
2019-06-20T03:07:56.206Z,20.00
2019-06-20T03:08:56.264Z,20.00
2019-06-20T03:09:56.342Z,28.00
2019-06-20T03:10:56.401Z,28.00
2019-06-20T03:11:56.462Z,28.00
2019-06-20T03:12:56.525Z,28.00
2019-06-20T03:13:56.589Z,28.00
2019-06-20T03:14:56.661Z,28.00
2019-06-20T03:15:56.725Z,28.00
2019-06-20T03:16:56.785Z,28.00
2019-06-20T03:17:56.849Z,32.00
2019-06-20T03:18:56.914Z,28.00
2019-06-20T03:19:56.988Z,32.00
2019-06-20T03:20:57.061Z,36.00
2019-06-20T03:21:57.109Z,36.00
2019-06-20T03:22:57.174Z,36.00
2019-06-20T03:23:57.238Z,40.00
2019-06-20T03:24:57.326Z,44.00
2019-06-20T03:25:57.370Z,44.00
2019-06-20T03:26:57.459Z,44.00
2019-06-20T03:27:57.498Z,48.00
2019-06-20T03:28:57.562Z,52.00
2019-06-20T03:29:57.635Z,52.00
2019-06-20T03:30:57.700Z,60.00
2019-06-20T03:31:57.759Z,64.00
2019-06-20T03:32:57.831Z,68.00
2019-06-20T03:33:57.887Z,76.00
2019-06-20T03:34:57.975Z,80.00
2019-06-20T03:35:58.023Z,88.00
2019-06-20T03:36:58.082Z,88.00
2019-06-20T03:37:58.146Z,92.00
2019-06-20T03:38:58.229Z,92.00
2019-06-20T03:39:58.431Z,92.00
2019-06-20T03:40:58.343Z,92.00
2019-06-20T03:41:58.406Z,96.00
2019-06-20T03:42:58.470Z,100.00
2019-06-20T03:43:59.174Z,104.00
2019-06-20T03:45:02.418Z,116.00
2019-06-20T03:45:58.675Z,124.00
2019-06-20T03:46:58.731Z,132.00
2019-06-20T03:47:58.794Z,136.00
2019-06-20T03:48:58.868Z,136.00
2019-06-20T03:49:58.935Z,140.00
2019-06-20T03:50:59.003Z,148.00
2019-06-20T03:51:59.055Z,152.00
2019-06-20T03:52:59.128Z,152.00
2019-06-20T03:53:59.187Z,148.00
2019-06-20T03:54:59.271Z,144.00
2019-06-20T03:55:59.317Z,144.00
2019-06-20T03:56:59.379Z,148.00
2019-06-20T03:57:59.442Z,160.00
2019-06-20T03:58:59.511Z,168.00
2019-06-20T03:59:59.583Z,184.00
2019-06-20T04:00:59.652Z,184.00
2019-06-20T04:01:59.713Z,172.00
2019-06-20T04:02:59.771Z,152.00
2019-06-20T04:03:59.841Z,144.00
2019-06-20T04:04:59.916Z,140.00
2019-06-20T04:05:59.972Z,140.00
2019-06-20T04:07:00.030Z,148.00
2019-06-20T04:08:00.092Z,152.00
2019-06-20T04:09:00.163Z,152.00
2019-06-20T04:10:00.263Z,168.00
2019-06-20T04:11:00.294Z,184.00
2019-06-20T04:12:00.352Z,200.00
2019-06-20T04:13:00.420Z,216.00
2019-06-20T04:14:00.484Z,240.00
2019-06-20T04:15:00.556Z,260.00
2019-06-20T04:16:00.620Z,276.00
2019-06-20T04:17:00.691Z,300.00
2019-06-20T04:18:00.746Z,320.00
2019-06-20T04:19:00.808Z,340.00
2019-06-20T04:20:00.880Z,360.00
2019-06-20T04:21:00.944Z,376.00
2019-06-20T04:22:01.005Z,376.00
2019-06-20T04:23:01.068Z,376.00
2019-06-20T04:24:01.132Z,392.00
2019-06-20T04:25:01.409Z,408.00
2019-06-20T04:26:01.267Z,424.00
2019-06-20T04:27:01.329Z,436.00
2019-06-20T04:28:01.393Z,456.00
2019-06-20T04:29:01.457Z,472.00
2019-06-20T04:30:01.530Z,496.00
2019-06-20T04:31:01.597Z,500.00
2019-06-20T04:32:01.653Z,500.00
2019-06-20T04:33:01.718Z,504.00
2019-06-20T04:34:01.785Z,524.00
2019-06-20T04:35:01.864Z,568.00
2019-06-20T04:36:01.927Z,628.00
2019-06-20T04:37:01.982Z,692.00
2019-06-20T04:38:02.046Z,736.00
2019-06-20T04:39:15.607Z,844.00
2019-06-20T04:40:02.338Z,948.00
2019-06-20T04:41:02.243Z,972.00
2019-06-20T04:42:02.307Z,972.00
2019-06-20T04:43:02.369Z,924.00
2019-06-20T04:44:02.434Z,864.00
2019-06-20T04:45:02.506Z,768.00
2019-06-20T04:46:02.575Z,760.00
2019-06-20T04:47:02.640Z,828.00
2019-06-20T04:48:02.758Z,888.00
2019-06-20T04:49:02.762Z,964.00
2019-06-20T04:50:02.874Z,1000.00
2019-06-20T04:51:02.901Z,992.00
2019-06-20T04:52:02.954Z,984.00
2019-06-20T04:53:03.025Z,984.00
2019-06-20T04:54:03.086Z,988.00
2019-06-20T04:55:03.179Z,936.00
2019-06-20T04:56:05.734Z,804.00
2019-06-20T04:57:03.283Z,684.00
2019-06-20T04:58:03.349Z,620.00
2019-06-20T04:59:03.415Z,600.00
2019-06-20T05:00:03.489Z,616.00
2019-06-20T05:01:03.550Z,644.00
2019-06-20T05:02:03.607Z,688.00
2019-06-20T05:03:03.676Z,756.00
2019-06-20T05:04:03.739Z,844.00
2019-06-20T05:05:03.811Z,880.00
2019-06-20T05:06:03.884Z,872.00
2019-06-20T05:07:03.934Z,868.00
2019-06-20T05:08:03.999Z,864.00
2019-06-20T05:09:04.067Z,836.00
2019-06-20T05:10:04.155Z,792.00
2019-06-20T05:11:04.203Z,760.00
2019-06-20T05:12:04.267Z,704.00
2019-06-20T05:13:04.327Z,640.00
2019-06-20T05:14:04.391Z,600.00
2019-06-20T05:15:04.463Z,588.00
2019-06-20T05:16:04.527Z,608.00
2019-06-20T05:17:07.125Z,664.00
2019-06-20T05:18:04.651Z,712.00
2019-06-20T05:19:04.719Z,780.00
2019-06-20T05:20:04.787Z,900.00
2019-06-20T05:21:04.859Z,1052.00
2019-06-20T05:22:04.917Z,1216.00
2019-06-20T05:23:04.979Z,1416.00
2019-06-20T05:24:05.044Z,1708.00
2019-06-20T05:25:05.183Z,2068.00
2019-06-20T05:26:05.175Z,2556.00
2019-06-20T05:27:05.240Z,2984.00
2019-06-20T05:28:05.308Z,3016.00
2019-06-20T05:29:05.612Z,2544.00
2019-06-20T05:30:05.444Z,2032.00
2019-06-20T05:31:05.508Z,1684.00
2019-06-20T05:32:05.568Z,1180.00
2019-06-20T05:33:05.637Z,1040.00
2019-06-20T05:34:05.697Z,1024.00
2019-06-20T05:35:05.769Z,1116.00
2019-06-20T05:36:05.837Z,1220.00
2019-06-20T05:37:05.896Z,1344.00
2019-06-20T05:38:05.961Z,1428.00
2019-06-20T05:39:06.026Z,1476.00
2019-06-20T05:40:06.116Z,1444.00
2019-06-20T05:41:06.156Z,1396.00
2019-06-20T05:42:06.225Z,1468.00
2019-06-20T05:43:06.289Z,1440.00
2019-06-20T05:44:06.353Z,1312.00
2019-06-20T05:45:06.425Z,1320.00
2019-06-20T05:46:10.649Z,1616.00
2019-06-20T05:47:12.237Z,1908.00
2019-06-20T05:48:07.614Z,2096.00
2019-06-20T05:49:06.681Z,2068.00
2019-06-20T05:50:06.762Z,2180.00
2019-06-20T05:51:06.829Z,2296.00
2019-06-20T05:52:06.877Z,2504.00
2019-06-20T05:53:06.941Z,2656.00
2019-06-20T05:54:07.010Z,2760.00
2019-06-20T05:55:07.186Z,2780.00
2019-06-20T05:56:08.367Z,2868.00
2019-06-20T05:57:07.209Z,3004.00
2019-06-20T05:58:07.273Z,3484.00
2019-06-20T05:59:08.234Z,4148.00
2019-06-20T06:00:08.367Z,4720.00
2019-06-20T06:01:07.473Z,5080.00
2019-06-20T06:02:07.535Z,5508.00
2019-06-20T06:03:07.604Z,5632.00
2019-06-20T06:04:07.670Z,3588.00
2019-06-20T06:05:07.742Z,3296.00
2019-06-20T06:06:07.815Z,3040.00
2019-06-20T06:07:07.867Z,2644.00
2019-06-20T06:08:07.942Z,2756.00
2019-06-20T06:09:07.998Z,2528.00
2019-06-20T06:10:08.070Z,2236.00
2019-06-20T06:11:08.134Z,2008.00
2019-06-20T06:12:08.195Z,1960.00
2019-06-20T06:13:08.272Z,1572.00
2019-06-20T06:14:08.326Z,1064.00
2019-06-20T06:15:08.398Z,836.00
2019-06-20T06:16:22.578Z,828.00
2019-06-20T06:17:08.523Z,992.00
2019-06-20T06:18:08.590Z,1180.00
2019-06-20T06:19:08.654Z,1356.00
2019-06-20T06:20:08.779Z,1524.00
2019-06-20T06:21:08.794Z,1760.00
2019-06-20T06:22:08.854Z,1972.00
2019-06-20T06:23:08.918Z,1960.00
2019-06-20T06:24:08.984Z,1912.00
2019-06-20T06:25:09.061Z,2000.00
2019-06-20T06:26:09.132Z,2304.00
2019-06-20T06:27:09.185Z,2488.00
2019-06-20T06:28:12.225Z,2464.00
2019-06-20T06:29:09.329Z,2520.00
2019-06-20T06:30:09.387Z,2496.00
2019-06-20T06:31:09.455Z,2480.00
2019-06-20T06:32:09.513Z,2652.00
2019-06-20T06:33:09.579Z,2832.00
2019-06-20T06:34:09.668Z,2716.00
2019-06-20T06:35:09.715Z,2196.00
2019-06-20T06:36:09.791Z,1624.00
2019-06-20T06:37:09.840Z,1168.00
2019-06-20T06:38:09.908Z,1048.00
2019-06-20T06:39:09.975Z,1072.00
2019-06-20T06:40:10.053Z,1088.00
2019-06-20T06:41:10.111Z,1088.00
2019-06-20T06:42:10.171Z,1108.00
2019-06-20T06:43:10.237Z,1160.00
2019-06-20T06:44:10.304Z,1260.00
2019-06-20T06:45:10.381Z,1360.00
2019-06-20T06:46:10.651Z,1436.00
2019-06-20T06:47:10.499Z,1524.00
2019-06-20T06:48:10.567Z,1568.00
2019-06-20T06:49:10.632Z,1652.00
2019-06-20T06:50:10.705Z,1832.00
2019-06-20T06:51:10.773Z,2080.00
2019-06-20T06:52:10.828Z,2284.00
2019-06-20T06:53:10.900Z,2488.00
2019-06-20T06:54:10.963Z,2920.00
2019-06-20T06:55:11.036Z,3548.00
2019-06-20T06:56:11.100Z,4336.00
2019-06-20T06:57:11.160Z,4988.00
2019-06-20T06:58:11.224Z,5492.00
2019-06-20T06:59:11.292Z,7200.00
2019-06-20T07:00:11.391Z,6732.00
2019-06-20T07:01:11.425Z,7748.00
2019-06-20T07:02:11.489Z,8672.00
2019-06-20T07:03:11.560Z,12336.00
2019-06-20T07:04:11.633Z,12408.00
2019-06-20T07:05:11.697Z,11300.00
2019-06-20T07:06:11.761Z,12592.00
2019-06-20T07:07:11.821Z,19680.00
2019-06-20T07:08:11.904Z,22016.00
2019-06-20T07:09:11.959Z,31872.00
2019-06-20T07:10:12.033Z,27968.00
2019-06-20T07:11:12.102Z,26016.00
2019-06-20T07:12:12.172Z,28832.00
2019-06-20T07:13:12.244Z,32256.00
2019-06-20T07:14:12.302Z,38784.00
2019-06-20T07:15:12.377Z,35008.00
2019-06-20T07:16:12.437Z,34336.00
2019-06-20T07:17:12.502Z,35360.00
2019-06-20T07:18:12.573Z,38016.00
2019-06-20T07:19:12.701Z,20544.00
2019-06-20T07:20:15.133Z,27840.00
2019-06-20T07:21:12.790Z,25728.00
2019-06-20T07:22:12.853Z,24768.00
2019-06-20T07:23:12.950Z,24032.00
2019-06-20T07:24:13.025Z,28832.00
2019-06-20T07:25:13.174Z,36032.00
2019-06-20T07:26:13.140Z,37600.00
2019-06-20T07:27:13.210Z,34656.00
2019-06-20T07:28:13.282Z,28288.00
2019-06-20T07:29:13.363Z,29248.00
2019-06-20T07:30:13.434Z,25376.00
2019-06-20T07:31:13.514Z,30656.00
2019-06-20T07:32:13.573Z,26560.00
2019-06-20T07:33:13.647Z,28256.00
2019-06-20T07:34:13.718Z,36256.00
2019-06-20T07:35:13.798Z,32832.00
2019-06-20T07:36:13.870Z,16192.00
2019-06-20T07:37:13.938Z,15584.00
2019-06-20T07:38:14.022Z,10596.00
2019-06-20T07:39:14.086Z,13200.00
2019-06-20T07:40:14.246Z,10076.00
2019-06-20T07:41:14.227Z,18976.00
2019-06-20T07:42:14.303Z,13720.00
2019-06-20T07:43:14.381Z,9408.00
2019-06-20T07:44:14.446Z,10596.00
2019-06-20T07:45:14.529Z,9448.00
2019-06-20T07:46:14.603Z,11208.00
2019-06-20T07:47:17.951Z,22400.00
2019-06-20T07:48:14.736Z,21984.00
2019-06-20T07:49:14.814Z,18048.00
2019-06-20T07:50:14.888Z,24224.00
2019-06-20T07:51:14.963Z,13148.00
2019-06-20T07:52:15.038Z,15328.00
2019-06-20T07:53:15.096Z,15968.00
2019-06-20T07:54:15.171Z,19968.00
2019-06-20T07:55:15.254Z,13240.00
2019-06-20T07:56:15.312Z,11460.00
2019-06-20T07:57:15.402Z,13012.00
2019-06-20T07:58:15.461Z,16960.00
2019-06-20T07:59:15.527Z,14284.00
2019-06-20T08:00:15.608Z,11512.00
2019-06-20T08:01:15.680Z,12672.00
2019-06-20T08:02:15.744Z,13932.00
2019-06-20T08:03:15.816Z,11488.00
2019-06-20T08:04:15.891Z,9480.00
2019-06-20T08:05:15.968Z,7828.00
2019-06-20T08:06:16.036Z,9980.00
2019-06-20T08:07:16.104Z,8108.00
2019-06-20T08:08:16.172Z,19776.00
2019-06-20T08:09:16.257Z,13884.00
2019-06-20T08:10:16.316Z,20512.00
2019-06-20T08:11:16.404Z,22816.00
2019-06-20T08:12:16.456Z,14000.00
2019-06-20T08:13:16.569Z,16544.00
2019-06-20T08:14:16.600Z,26080.00
2019-06-20T08:15:16.672Z,19840.00
2019-06-20T08:16:16.755Z,20640.00
2019-06-20T08:17:34.036Z,24608.00
2019-06-20T08:18:16.892Z,27424.00
2019-06-20T08:19:16.961Z,17120.00
2019-06-20T08:20:17.033Z,7720.00
2019-06-20T08:21:17.124Z,8004.00
2019-06-20T08:22:17.180Z,7784.00
2019-06-20T08:23:17.248Z,8184.00
2019-06-20T08:24:17.321Z,9692.00
2019-06-20T08:25:17.392Z,8128.00
2019-06-20T08:26:17.472Z,7804.00
2019-06-20T08:27:17.545Z,7664.00
2019-06-20T08:28:17.609Z,7620.00
2019-06-20T08:29:21.037Z,17024.00
2019-06-20T08:30:17.749Z,10204.00
2019-06-20T08:31:17.829Z,17472.00
2019-06-20T08:32:17.901Z,19456.00
2019-06-20T08:33:17.966Z,19392.00
2019-06-20T08:34:18.038Z,17824.00
2019-06-20T08:35:18.109Z,14528.00
2019-06-20T08:36:18.208Z,9680.00
2019-06-20T08:37:18.254Z,7244.00
2019-06-20T08:38:18.328Z,15264.00
2019-06-20T08:39:18.401Z,15872.00
2019-06-20T08:40:18.477Z,16384.00
2019-06-20T08:41:18.550Z,16288.00
2019-06-20T08:42:18.630Z,14720.00
2019-06-20T08:43:18.689Z,14304.00
2019-06-20T08:44:18.762Z,13544.00
2019-06-20T08:45:18.833Z,12240.00
2019-06-20T08:46:18.918Z,10728.00
2019-06-20T08:47:18.990Z,11480.00
2019-06-20T08:48:19.053Z,15264.00
2019-06-20T08:49:19.151Z,9148.00
2019-06-20T08:50:19.202Z,17536.00
2019-06-20T08:51:19.300Z,15520.00
2019-06-20T08:52:19.350Z,16384.00
2019-06-20T08:53:19.477Z,14528.00
2019-06-20T08:54:19.498Z,13792.00
2019-06-20T08:55:19.574Z,14592.00
2019-06-20T08:56:19.675Z,17440.00
2019-06-20T08:57:23.188Z,18432.00
2019-06-20T08:58:19.795Z,18624.00
2019-06-20T08:59:24.278Z,8440.00
2019-06-20T09:00:19.951Z,17184.00
2019-06-20T09:01:20.035Z,17952.00
2019-06-20T09:02:20.104Z,7792.00
2019-06-20T09:03:20.171Z,7348.00
2019-06-20T09:04:22.460Z,8552.00
2019-06-20T09:05:20.319Z,18464.00
2019-06-20T09:06:20.557Z,17216.00
2019-06-20T09:07:20.463Z,16544.00
2019-06-20T09:08:20.534Z,16416.00
2019-06-20T09:09:20.615Z,15904.00
2019-06-20T09:10:20.691Z,13040.00
2019-06-20T09:11:20.768Z,12732.00
2019-06-20T09:12:20.840Z,7340.00
2019-06-20T09:13:20.907Z,9444.00
2019-06-20T09:14:20.983Z,11368.00
2019-06-20T09:15:21.059Z,6584.00
2019-06-20T09:16:24.623Z,5608.00
2019-06-20T09:17:21.203Z,4388.00
2019-06-20T09:18:21.275Z,4516.00
2019-06-20T09:19:21.347Z,4328.00
2019-06-20T09:20:21.420Z,4084.00
2019-06-20T09:21:21.503Z,3884.00
2019-06-20T09:22:21.579Z,3968.00
2019-06-20T09:23:21.640Z,4040.00
2019-06-20T09:24:21.707Z,3884.00
2019-06-20T09:25:21.780Z,3776.00
2019-06-20T09:26:21.898Z,3768.00
2019-06-20T09:27:21.934Z,3912.00
2019-06-20T09:28:21.996Z,3944.00
2019-06-20T09:29:22.064Z,3988.00
2019-06-20T09:30:22.136Z,4276.00
2019-06-20T09:31:22.307Z,4932.00
2019-06-20T09:32:22.276Z,5600.00
2019-06-20T09:33:22.348Z,4896.00
2019-06-20T09:34:22.416Z,4796.00
2019-06-20T09:35:22.489Z,4828.00
2019-06-20T09:36:22.564Z,5588.00
2019-06-20T09:37:22.644Z,8896.00
2019-06-20T09:38:22.696Z,6436.00
2019-06-20T09:39:22.773Z,6048.00
2019-06-20T09:40:23.057Z,5932.00
2019-06-20T09:41:22.912Z,6036.00
2019-06-20T09:42:22.986Z,5868.00
2019-06-20T09:43:27.553Z,5872.00
2019-06-20T09:44:23.121Z,6484.00
2019-06-20T09:45:23.185Z,6008.00
2019-06-20T09:46:23.254Z,6452.00
2019-06-20T09:47:23.437Z,7360.00
2019-06-20T09:48:23.392Z,7112.00
2019-06-20T09:49:23.466Z,7468.00
2019-06-20T09:50:23.533Z,7708.00
2019-06-20T09:51:23.601Z,7608.00
2019-06-20T09:52:23.677Z,7156.00
2019-06-20T09:53:23.749Z,6424.00
2019-06-20T09:54:23.813Z,5936.00
2019-06-20T09:55:23.890Z,5772.00
2019-06-20T09:56:23.952Z,7032.00
2019-06-20T09:57:24.026Z,8244.00
2019-06-20T09:58:24.109Z,7580.00
2019-06-20T09:59:27.881Z,7200.00
2019-06-20T10:00:24.229Z,8020.00
2019-06-20T10:01:24.300Z,7640.00
2019-06-20T10:02:24.387Z,8736.00
2019-06-20T10:03:24.438Z,8584.00
2019-06-20T10:04:24.506Z,8972.00
2019-06-20T10:05:24.578Z,9684.00
2019-06-20T10:06:24.646Z,9996.00
2019-06-20T10:07:24.723Z,10108.00
2019-06-20T10:08:24.794Z,10724.00
2019-06-20T10:09:24.858Z,10280.00
2019-06-20T10:10:24.927Z,10356.00
2019-06-20T10:11:24.998Z,10004.00
2019-06-20T10:12:25.087Z,9836.00
2019-06-20T10:13:25.134Z,9892.00
2019-06-20T10:14:25.206Z,10248.00
2019-06-20T10:15:25.278Z,10196.00
2019-06-20T10:16:25.346Z,10316.00
2019-06-20T10:17:25.422Z,9628.00
2019-06-20T10:18:25.498Z,9548.00
2019-06-20T10:19:25.559Z,9800.00
2019-06-20T10:20:25.629Z,9492.00
2019-06-20T10:21:25.698Z,8352.00
2019-06-20T10:22:25.775Z,8312.00
2019-06-20T10:23:25.855Z,8352.00
2019-06-20T10:24:25.911Z,8672.00
2019-06-20T10:25:25.978Z,9576.00
2019-06-20T10:26:26.057Z,9236.00
2019-06-20T10:27:26.155Z,9588.00
2019-06-20T10:28:26.192Z,10144.00
2019-06-20T10:29:26.263Z,9024.00
2019-06-20T10:30:26.340Z,8956.00
2019-06-20T10:31:26.403Z,9484.00
2019-06-20T10:32:26.479Z,8796.00
2019-06-20T10:33:26.564Z,8880.00
2019-06-20T10:34:26.615Z,8980.00
2019-06-20T10:35:26.687Z,8792.00
2019-06-20T10:36:26.755Z,8840.00
2019-06-20T10:37:26.838Z,9192.00
2019-06-20T10:38:26.907Z,8532.00
2019-06-20T10:39:26.972Z,8332.00
2019-06-20T10:40:27.043Z,7544.00
2019-06-20T10:41:27.111Z,7172.00
2019-06-20T10:42:27.211Z,7088.00
2019-06-20T10:43:27.276Z,7224.00
2019-06-20T10:44:27.324Z,7956.00
2019-06-20T10:45:27.402Z,7544.00
2019-06-20T10:46:27.464Z,7004.00
2019-06-20T10:47:33.519Z,6776.00
2019-06-20T10:48:27.613Z,7020.00
2019-06-20T10:49:27.676Z,7800.00
2019-06-20T10:50:27.751Z,7664.00
2019-06-20T10:51:27.816Z,8152.00
2019-06-20T10:52:27.896Z,8268.00
2019-06-20T10:53:27.964Z,8092.00
2019-06-20T10:54:28.034Z,8168.00
2019-06-20T10:55:28.101Z,7908.00
2019-06-20T10:56:28.168Z,7552.00
2019-06-20T10:57:28.476Z,9404.00
2019-06-20T10:58:28.317Z,7464.00
2019-06-20T10:59:28.386Z,7452.00
2019-06-20T11:00:32.034Z,6324.00
2019-06-20T11:01:28.525Z,5544.00
2019-06-20T11:02:28.601Z,4964.00
2019-06-20T11:03:28.673Z,4588.00
2019-06-20T11:04:28.733Z,4496.00
2019-06-20T11:05:28.800Z,4504.00
2019-06-20T11:06:28.877Z,4548.00
2019-06-20T11:07:28.958Z,4640.00
2019-06-20T11:08:29.023Z,4572.00
2019-06-20T11:09:29.086Z,4504.00
2019-06-20T11:10:29.157Z,4440.00
2019-06-20T11:11:29.225Z,4532.00
2019-06-20T11:12:42.634Z,4776.00
2019-06-20T11:13:29.389Z,5060.00
2019-06-20T11:14:29.439Z,5256.00
2019-06-20T11:15:29.509Z,5244.00
2019-06-20T11:16:29.579Z,5372.00
2019-06-20T11:17:29.646Z,5836.00
2019-06-20T11:18:29.723Z,6332.00
2019-06-20T11:19:29.790Z,6552.00
2019-06-20T11:20:29.870Z,6676.00
2019-06-20T11:21:29.922Z,6636.00
2019-06-20T11:22:29.994Z,6540.00
2019-06-20T11:23:30.072Z,6416.00
2019-06-20T11:24:30.138Z,6628.00
2019-06-20T11:25:30.204Z,6944.00
2019-06-20T11:26:30.270Z,6768.00
2019-06-20T11:27:30.418Z,6216.00
2019-06-20T11:28:30.420Z,5660.00
2019-06-20T11:29:30.495Z,5240.00
2019-06-20T11:30:44.915Z,4928.00
2019-06-20T11:31:30.620Z,4676.00
2019-06-20T11:32:30.690Z,4748.00
2019-06-20T11:33:30.766Z,5056.00
2019-06-20T11:34:30.835Z,5632.00
2019-06-20T11:35:31.425Z,6412.00
2019-06-20T11:36:30.967Z,7120.00
2019-06-20T11:37:31.043Z,6468.00
2019-06-20T11:38:31.118Z,6040.00
2019-06-20T11:39:31.200Z,5524.00
2019-06-20T11:40:31.246Z,5112.00
2019-06-20T11:41:31.315Z,4704.00
2019-06-20T11:42:31.399Z,4488.00
2019-06-20T11:43:31.463Z,5008.00
2019-06-20T11:44:31.531Z,5348.00
2019-06-20T11:45:31.594Z,5404.00
2019-06-20T11:46:31.664Z,7020.00
2019-06-20T11:47:31.731Z,5588.00
2019-06-20T11:48:31.815Z,5276.00
2019-06-20T11:49:31.882Z,5080.00
2019-06-20T11:50:31.939Z,4960.00
2019-06-20T11:51:34.303Z,4884.00
2019-06-20T11:52:35.941Z,5056.00
2019-06-20T11:53:33.669Z,5592.00
2019-06-20T11:54:33.257Z,5904.00
2019-06-20T11:55:32.288Z,6332.00
2019-06-20T11:56:32.367Z,6536.00
2019-06-20T11:57:32.427Z,6700.00
2019-06-20T11:58:32.504Z,6720.00
2019-06-20T11:59:32.572Z,6624.00
2019-06-20T12:00:32.636Z,6416.00
2019-06-20T12:01:33.304Z,6204.00
2019-06-20T12:02:32.776Z,5892.00
2019-06-20T12:03:32.853Z,5460.00
2019-06-20T12:04:32.919Z,5080.00
2019-06-20T12:05:32.984Z,4860.00
2019-06-20T12:06:33.064Z,4744.00
2019-06-20T12:07:33.152Z,4624.00
2019-06-20T12:08:33.450Z,4476.00
2019-06-20T12:09:36.374Z,4312.00
2019-06-20T12:10:33.336Z,4248.00
2019-06-20T12:11:33.401Z,4248.00
2019-06-20T12:12:33.469Z,4440.00
2019-06-20T12:13:33.545Z,4876.00
2019-06-20T12:14:33.617Z,5508.00
2019-06-20T12:15:33.676Z,6608.00
2019-06-20T12:16:33.751Z,8616.00
2019-06-20T12:17:33.817Z,9176.00
2019-06-20T12:18:33.893Z,7424.00
2019-06-20T12:19:33.960Z,8436.00
2019-06-20T12:20:34.028Z,9036.00
2019-06-20T12:21:34.095Z,8964.00
2019-06-20T12:22:34.166Z,8752.00
2019-06-20T12:23:34.393Z,7204.00
2019-06-20T12:24:34.301Z,5600.00
2019-06-20T12:25:34.373Z,5204.00